Terminal Aerodrome Forecast
Issued by NWS Lake Charles, LA

Home | Current Version | Previous Version | Text Only | Print | Product List | Glossary On
Versions: 1 2 3 4 5 6 7 8 9 10 11 12 13 14 15 16 17 18 19
000
FTUS44 KLCH 280520
TAFAEX
TAF
KAEX 280520Z 2806/2906 17003KT P6SM FEW013
     FM280900 17003KT 4SM BR OVC011
      TEMPO 2811/2815 FEW011 BKN020
     FM281500 16006KT P6SM BKN022
     FM281800 16008KT P6SM OVC050
     FM290000 14005KT P6SM BKN250=

USA.gov is the U.S. government's official web portal to all federal, state and local government web resources and services.